KEDN Airport (Enterprise Muni) Information

FAA: EDN - ICAO: KEDN

KEDN Airport Location

State Alabama
County Coffee
City Enterprise
KEDN Airport is 3 miles west of Enterprise, AL.
Latitude 31-17-59.0000N
Longitude 085-53-59.4000W
Elevation 360ft

KEDN Airport METARs

METAR KEDN 240915Z AUTO 00000KT 10SM CLR 12/12 A3005 RMK AO2 T01190119
Altimeter 30.05"
Temperature 11.9°C (53.4°F)
Wind 0° at 0KT
Clouds Skies are clear.
Visibility 10.0mi
Time observed: 2021-09-24T09:15:00Z

KEDN Airport Details

Status Operational
Activation July 1955
Ownership Public
Usage Public
Chart NEW ORLEANS
ATC on-site No
Beacon schedule sunset-sunrise
Beacon color clear green

KEDN Airport Contacts

Owner TOWN OF ENTERPRISE
Owner address P.O.BOX 311000, ENTERPRISE, AL 36331
Owner phone 334-347-1211
Manager STACI HAYES
Manager address 867 AVIATION BLVD., ENTERPRISE, AL 36331
Manager phone 334-347-1211

KEDN Airport (Enterprise Muni) Radio Frequencies

KEDN (Airport) Radio Frequencies

UNICOM 122.8
Common traffic advisory frequency (CTAF) 122.8